sensor_id;sensor_type;location;lat;lon;timestamp;pressure;altitude;pressure_sealevel;temperature;humidity
49973;BME280;71845;49.798;10.968;2023-12-07T00:00:59;98379.22;;;1.70;76.67
49973;BME280;71845;49.798;10.968;2023-12-07T00:03:25;98379.94;;;1.75;76.16
49973;BME280;71845;49.798;10.968;2023-12-07T00:05:52;98384.41;;;1.71;76.31
49973;BME280;71845;49.798;10.968;2023-12-07T00:08:18;98380.94;;;1.71;76.70
49973;BME280;71845;49.798;10.968;2023-12-07T00:10:47;98382.66;;;1.70;77.25
49973;BME280;71845;49.798;10.968;2023-12-07T00:13:14;98389.50;;;1.76;76.76
49973;BME280;71845;49.798;10.968;2023-12-07T00:15:41;98386.03;;;1.76;76.25
49973;BME280;71845;49.798;10.968;2023-12-07T00:18:08;98393.13;;;1.70;77.18
49973;BME280;71845;49.798;10.968;2023-12-07T00:20:35;98388.66;;;1.76;76.40
49973;BME280;71845;49.798;10.968;2023-12-07T00:23:03;98392.06;;;1.79;76.76
49973;BME280;71845;49.798;10.968;2023-12-07T00:25:29;98400.81;;;1.77;76.30
49973;BME280;71845;49.798;10.968;2023-12-07T00:27:58;98397.34;;;1.76;76.75
49973;BME280;71845;49.798;10.968;2023-12-07T00:30:25;98393.81;;;1.77;76.87
49973;BME280;71845;49.798;10.968;2023-12-07T00:32:51;98398.13;;;1.80;76.22
49973;BME280;71845;49.798;10.968;2023-12-07T00:35:18;98400.13;;;1.68;77.06
49973;BME280;71845;49.798;10.968;2023-12-07T00:37:47;98407.03;;;1.72;77.14
49973;BME280;71845;49.798;10.968;2023-12-07T00:40:14;98395.78;;;1.69;76.77
49973;BME280;71845;49.798;10.968;2023-12-07T00:42:41;98411.31;;;1.75;76.58
49973;BME280;71845;49.798;10.968;2023-12-07T00:45:11;98400.09;;;1.71;76.87
49973;BME280;71845;49.798;10.968;2023-12-07T00:47:39;98409.13;;;1.58;77.07
49973;BME280;71845;49.798;10.968;2023-12-07T00:50:07;98411.50;;;1.67;76.51
49973;BME280;71845;49.798;10.968;2023-12-07T00:52:35;98409.66;;;1.71;76.75
49973;BME280;71845;49.798;10.968;2023-12-07T00:55:01;98414.09;;;1.67;76.75
49973;BME280;71845;49.798;10.968;2023-12-07T00:57:29;98409.16;;;1.56;76.87
49973;BME280;71845;49.798;10.968;2023-12-07T00:59:57;98415.19;;;1.58;76.74
49973;BME280;71845;49.798;10.968;2023-12-07T01:02:26;98420.50;;;1.55;76.91
49973;BME280;71845;49.798;10.968;2023-12-07T01:04:56;98411.84;;;1.52;77.42
49973;BME280;71845;49.798;10.968;2023-12-07T01:07:24;98418.75;;;1.56;77.08
49973;BME280;71845;49.798;10.968;2023-12-07T01:09:50;98426.00;;;1.43;77.69
49973;BME280;71845;49.798;10.968;2023-12-07T01:12:16;98431.91;;;1.51;77.56
49973;BME280;71845;49.798;10.968;2023-12-07T01:14:43;98432.56;;;1.60;77.34
49973;BME280;71845;49.798;10.968;2023-12-07T01:17:10;98442.91;;;1.66;76.84
49973;BME280;71845;49.798;10.968;2023-12-07T01:19:38;98444.91;;;1.53;77.11
49973;BME280;71845;49.798;10.968;2023-12-07T01:22:04;98451.13;;;1.49;77.03
49973;BME280;71845;49.798;10.968;2023-12-07T01:24:31;98455.38;;;1.53;77.07
49973;BME280;71845;49.798;10.968;2023-12-07T01:26:59;98456.56;;;1.39;77.42
49973;BME280;71845;49.798;10.968;2023-12-07T01:29:26;98459.69;;;1.54;77.14
49973;BME280;71845;49.798;10.968;2023-12-07T01:31:54;98469.13;;;1.61;76.86
49973;BME280;71845;49.798;10.968;2023-12-07T01:34:21;98465.63;;;1.61;77.02
49973;BME280;71845;49.798;10.968;2023-12-07T01:36:49;98459.69;;;1.54;77.08
49973;BME280;71845;49.798;10.968;2023-12-07T01:39:17;98470.84;;;1.62;76.63
49973;BME280;71845;49.798;10.968;2023-12-07T01:41:46;98475.44;;;1.51;77.88
49973;BME280;71845;49.798;10.968;2023-12-07T01:44:13;98474.28;;;1.64;76.97
49973;BME280;71845;49.798;10.968;2023-12-07T01:46:39;98480.91;;;1.41;78.10
49973;BME280;71845;49.798;10.968;2023-12-07T01:49:07;98475.31;;;1.57;77.28
49973;BME280;71845;49.798;10.968;2023-12-07T01:51:34;98477.56;;;1.35;77.88
49973;BME280;71845;49.798;10.968;2023-12-07T01:54:04;98478.34;;;1.38;78.06
49973;BME280;71845;49.798;10.968;2023-12-07T01:56:32;98479.09;;;1.43;77.66
49973;BME280;71845;49.798;10.968;2023-12-07T01:58:59;98480.75;;;1.48;77.64
49973;BME280;71845;49.798;10.968;2023-12-07T02:01:26;98483.44;;;1.45;77.57
49973;BME280;71845;49.798;10.968;2023-12-07T02:03:52;98480.59;;;1.54;76.94
49973;BME280;71845;49.798;10.968;2023-12-07T02:06:19;98472.97;;;1.46;76.91
49973;BME280;71845;49.798;10.968;2023-12-07T02:08:48;98470.44;;;1.41;77.38
49973;BME280;71845;49.798;10.968;2023-12-07T02:11:15;98472.06;;;1.47;77.12
49973;BME280;71845;49.798;10.968;2023-12-07T02:13:42;98475.53;;;1.48;77.36
49973;BME280;71845;49.798;10.968;2023-12-07T02:16:15;98470.13;;;1.55;77.13
49973;BME280;71845;49.798;10.968;2023-12-07T02:18:51;98486.84;;;1.48;77.15
49973;BME280;71845;49.798;10.968;2023-12-07T02:21:22;98471.47;;;1.34;77.45
49973;BME280;71845;49.798;10.968;2023-12-07T02:23:54;98482.72;;;1.38;77.77
49973;BME280;71845;49.798;10.968;2023-12-07T02:26:22;98484.19;;;1.50;77.55
49973;BME280;71845;49.798;10.968;2023-12-07T02:28:55;98485.94;;;1.49;77.29
49973;BME280;71845;49.798;10.968;2023-12-07T02:31:21;98499.78;;;1.53;77.06
49973;BME280;71845;49.798;10.968;2023-12-07T02:33:48;98492.00;;;1.51;77.27
49973;BME280;71845;49.798;10.968;2023-12-07T02:36:19;98483.03;;;1.62;76.78
49973;BME280;71845;49.798;10.968;2023-12-07T02:38:51;98483.25;;;1.52;77.17
49973;BME280;71845;49.798;10.968;2023-12-07T02:41:18;98474.28;;;1.64;76.75
49973;BME280;71845;49.798;10.968;2023-12-07T02:43:45;98479.59;;;1.60;76.93
49973;BME280;71845;49.798;10.968;2023-12-07T02:46:13;98484.78;;;1.63;76.77
49973;BME280;71845;49.798;10.968;2023-12-07T02:48:40;98479.78;;;1.52;77.54
49973;BME280;71845;49.798;10.968;2023-12-07T02:51:06;98482.34;;;1.55;76.74
49973;BME280;71845;49.798;10.968;2023-12-07T02:53:36;98485.69;;;1.60;76.71
49973;BME280;71845;49.798;10.968;2023-12-07T02:56:04;98491.28;;;1.45;77.20
49973;BME280;71845;49.798;10.968;2023-12-07T02:58:31;98488.75;;;1.40;77.00
49973;BME280;71845;49.798;10.968;2023-12-07T03:00:58;98491.16;;;1.49;76.72
49973;BME280;71845;49.798;10.968;2023-12-07T03:03:26;98471.75;;;1.22;77.13
49973;BME280;71845;49.798;10.968;2023-12-07T03:05:53;98482.06;;;1.28;77.44
49973;BME280;71845;49.798;10.968;2023-12-07T03:08:20;98492.28;;;1.37;76.63
49973;BME280;71845;49.798;10.968;2023-12-07T03:10:47;98494.38;;;1.21;77.43
49973;BME280;71845;49.798;10.968;2023-12-07T03:13:14;98503.19;;;1.17;77.51
49973;BME280;71845;49.798;10.968;2023-12-07T03:15:41;98503.41;;;1.06;77.66
49973;BME280;71845;49.798;10.968;2023-12-07T03:18:07;98504.00;;;1.19;77.42
49973;BME280;71845;49.798;10.968;2023-12-07T03:20:35;98502.94;;;1.28;78.18
49973;BME280;71845;49.798;10.968;2023-12-07T03:23:04;98508.84;;;1.36;76.99
49973;BME280;71845;49.798;10.968;2023-12-07T03:25:32;98510.13;;;1.17;76.90
49973;BME280;71845;49.798;10.968;2023-12-07T03:27:58;98513.63;;;1.17;77.41
49973;BME280;71845;49.798;10.968;2023-12-07T03:30:25;98512.47;;;1.31;77.04
49973;BME280;71845;49.798;10.968;2023-12-07T03:32:52;98505.63;;;1.25;76.92
49973;BME280;71845;49.798;10.968;2023-12-07T03:35:20;98518.69;;;1.25;76.70
49973;BME280;71845;49.798;10.968;2023-12-07T03:37:50;98518.69;;;1.25;76.88
49973;BME280;71845;49.798;10.968;2023-12-07T03:40:18;98516.09;;;1.23;76.66
49973;BME280;71845;49.798;10.968;2023-12-07T03:42:46;98526.47;;;1.26;76.21
49973;BME280;71845;49.798;10.968;2023-12-07T03:45:13;98522.34;;;1.16;76.51
49973;BME280;71845;49.798;10.968;2023-12-07T03:47:40;98519.75;;;1.16;75.86
49973;BME280;71845;49.798;10.968;2023-12-07T03:50:07;98517.81;;;1.24;75.78
49973;BME280;71845;49.798;10.968;2023-12-07T03:52:33;98521.00;;;0.96;76.26
49973;BME280;71845;49.798;10.968;2023-12-07T03:55:01;98523.63;;;0.96;76.51
49973;BME280;71845;49.798;10.968;2023-12-07T03:57:28;98516.66;;;0.95;75.62
49973;BME280;71845;49.798;10.968;2023-12-07T03:59:56;98522.81;;;0.91;75.45
49973;BME280;71845;49.798;10.968;2023-12-07T04:02:23;98530.50;;;1.00;75.60
49973;BME280;71845;49.798;10.968;2023-12-07T04:04:49;98525.50;;;0.90;75.37
49973;BME280;71845;49.798;10.968;2023-12-07T04:07:16;98545.50;;;0.89;75.33
49973;BME280;71845;49.798;10.968;2023-12-07T04:09:43;98544.50;;;0.95;75.83
49973;BME280;71845;49.798;10.968;2023-12-07T04:12:11;98548.00;;;0.94;75.43
49973;BME280;71845;49.798;10.968;2023-12-07T04:14:38;98540.19;;;0.94;75.48
49973;BME280;71845;49.798;10.968;2023-12-07T04:17:04;98546.94;;;1.04;75.05
49973;BME280;71845;49.798;10.968;2023-12-07T04:19:32;98550.91;;;0.80;76.01
49973;BME280;71845;49.798;10.968;2023-12-07T04:21:59;98549.25;;;0.74;75.09
49973;BME280;71845;49.798;10.968;2023-12-07T04:24:27;98551.75;;;0.80;74.80
49973;BME280;71845;49.798;10.968;2023-12-07T04:26:55;98548.44;;;0.72;75.50
49973;BME280;71845;49.798;10.968;2023-12-07T04:29:23;98545.56;;;0.84;75.08
49973;BME280;71845;49.798;10.968;2023-12-07T04:31:51;98551.91;;;0.71;75.44
49973;BME280;71845;49.798;10.968;2023-12-07T04:34:18;98551.31;;;0.56;75.56
49973;BME280;71845;49.798;10.968;2023-12-07T04:36:45;98555.59;;;0.61;75.50
49973;BME280;71845;49.798;10.968;2023-12-07T04:39:11;98556.53;;;0.55;75.09
49973;BME280;71845;49.798;10.968;2023-12-07T04:41:38;98556.34;;;0.67;75.38
49973;BME280;71845;49.798;10.968;2023-12-07T04:44:05;98557.22;;;0.66;75.01
49973;BME280;71845;49.798;10.968;2023-12-07T04:46:33;98549.50;;;0.60;75.17
49973;BME280;71845;49.798;10.968;2023-12-07T04:49:01;98558.25;;;0.56;74.54
49973;BME280;71845;49.798;10.968;2023-12-07T04:51:28;98561.06;;;0.47;75.39
49973;BME280;71845;49.798;10.968;2023-12-07T04:53:55;98563.88;;;0.34;76.06
49973;BME280;71845;49.798;10.968;2023-12-07T04:56:21;98558.00;;;0.20;75.38
49973;BME280;71845;49.798;10.968;2023-12-07T04:58:49;98560.44;;;0.29;75.25
49973;BME280;71845;49.798;10.968;2023-12-07T05:01:16;98552.91;;;0.12;75.77
49973;BME280;71845;49.798;10.968;2023-12-07T05:03:45;98558.78;;;0.26;75.49
49973;BME280;71845;49.798;10.968;2023-12-07T05:06:12;98559.59;;;0.28;74.79
49973;BME280;71845;49.798;10.968;2023-12-07T05:08:40;98556.34;;;0.14;75.50
49973;BME280;71845;49.798;10.968;2023-12-07T05:11:08;98559.78;;;0.16;75.65
49973;BME280;71845;49.798;10.968;2023-12-07T05:13:36;98565.06;;;0.14;75.40
49973;BME280;71845;49.798;10.968;2023-12-07T05:16:03;98559.31;;;-0.08;75.59
49973;BME280;71845;49.798;10.968;2023-12-07T05:18:30;98566.19;;;-0.04;75.65
49973;BME280;71845;49.798;10.968;2023-12-07T05:20:59;98580.22;;;-0.11;75.43
49973;BME280;71845;49.798;10.968;2023-12-07T05:23:27;98564.63;;;-0.17;75.50
49973;BME280;71845;49.798;10.968;2023-12-07T05:25:54;98568.84;;;-0.07;75.87
49973;BME280;71845;49.798;10.968;2023-12-07T05:28:21;98584.59;;;-0.15;75.98
49973;BME280;71845;49.798;10.968;2023-12-07T05:30:48;98583.91;;;-0.29;75.63
49973;BME280;71845;49.798;10.968;2023-12-07T05:33:15;98577.00;;;-0.32;76.64
49973;BME280;71845;49.798;10.968;2023-12-07T05:35:42;98573.50;;;-0.29;76.31
49973;BME280;71845;49.798;10.968;2023-12-07T05:38:10;98579.91;;;-0.52;76.47
49973;BME280;71845;49.798;10.968;2023-12-07T05:40:37;98580.44;;;-0.28;75.99
49973;BME280;71845;49.798;10.968;2023-12-07T05:43:03;98588.09;;;-0.17;75.16
49973;BME280;71845;49.798;10.968;2023-12-07T05:45:31;98580.34;;;-0.22;75.16
49973;BME280;71845;49.798;10.968;2023-12-07T05:47:57;98578.72;;;-0.29;75.39
49973;BME280;71845;49.798;10.968;2023-12-07T05:50:24;98582.97;;;-0.23;75.50
49973;BME280;71845;49.798;10.968;2023-12-07T05:52:55;98588.25;;;-0.26;74.85
49973;BME280;71845;49.798;10.968;2023-12-07T05:55:24;98591.75;;;-0.31;75.44
49973;BME280;71845;49.798;10.968;2023-12-07T05:57:50;98590.03;;;2.07;84.59
49973;BME280;71845;49.798;10.968;2023-12-07T06:00:18;98586.63;;;0.23;76.13
49973;BME280;71845;49.798;10.968;2023-12-07T06:02:45;98582.25;;;-0.33;75.52
49973;BME280;71845;49.798;10.968;2023-12-07T06:05:13;98590.91;;;-0.31;75.51
49973;BME280;71845;49.798;10.968;2023-12-07T06:07:40;98593.56;;;-0.34;75.19
49973;BME280;71845;49.798;10.968;2023-12-07T06:10:08;98592.72;;;-0.39;75.59
49973;BME280;71845;49.798;10.968;2023-12-07T06:16:18;98587.41;;;-0.32;75.77
49973;BME280;71845;49.798;10.968;2023-12-07T06:18:45;98588.41;;;-0.40;76.08
49973;BME280;71845;49.798;10.968;2023-12-07T06:21:13;98588.41;;;-0.39;76.04
49973;BME280;71845;49.798;10.968;2023-12-07T06:23:40;98596.28;;;-0.45;76.04
49973;BME280;71845;49.798;10.968;2023-12-07T06:26:07;98590.16;;;-0.43;76.13
49973;BME280;71845;49.798;10.968;2023-12-07T06:28:33;98599.66;;;-0.38;76.65
49973;BME280;71845;49.798;10.968;2023-12-07T06:31:05;98595.53;;;-0.52;77.09
49973;BME280;71845;49.798;10.968;2023-12-07T06:33:34;98588.63;;;-0.58;77.81
49973;BME280;71845;49.798;10.968;2023-12-07T06:36:02;98605.78;;;-0.43;76.98
49973;BME280;71845;49.798;10.968;2023-12-07T06:38:29;98611.09;;;-0.50;77.33
49973;BME280;71845;49.798;10.968;2023-12-07T06:40:56;98611.88;;;-0.42;78.32
49973;BME280;71845;49.798;10.968;2023-12-07T06:43:23;98610.19;;;-0.46;78.53
49973;BME280;71845;49.798;10.968;2023-12-07T06:45:50;98608.50;;;-0.50;78.44
49973;BME280;71845;49.798;10.968;2023-12-07T06:48:17;98607.41;;;-0.34;78.37
49973;BME280;71845;49.798;10.968;2023-12-07T06:50:47;98609.97;;;-0.29;78.08
49973;BME280;71845;49.798;10.968;2023-12-07T06:53:14;98604.81;;;-0.34;78.51
49973;BME280;71845;49.798;10.968;2023-12-07T06:55:43;98618.72;;;-0.33;77.86
49973;BME280;71845;49.798;10.968;2023-12-07T06:58:10;98615.09;;;-0.23;77.91
49973;BME280;71845;49.798;10.968;2023-12-07T07:00:38;98610.84;;;-0.30;78.21
49973;BME280;71845;49.798;10.968;2023-12-07T07:03:06;98621.22;;;-0.29;78.74
49973;BME280;71845;49.798;10.968;2023-12-07T07:05:34;98621.22;;;-0.29;77.97
49973;BME280;71845;49.798;10.968;2023-12-07T07:08:02;98618.50;;;-0.19;78.93
49973;BME280;71845;49.798;10.968;2023-12-07T07:10:31;98621.97;;;-0.17;78.60
49973;BME280;71845;49.798;10.968;2023-12-07T07:12:59;98628.00;;;-0.14;78.83
49973;BME280;71845;49.798;10.968;2023-12-07T07:15:27;98631.50;;;-0.16;78.97
49973;BME280;71845;49.798;10.968;2023-12-07T07:17:54;98641.75;;;-0.05;78.83
49973;BME280;71845;49.798;10.968;2023-12-07T07:20:21;98634.84;;;-0.06;79.38
49973;BME280;71845;49.798;10.968;2023-12-07T07:22:47;98645.25;;;-0.03;78.75
49973;BME280;71845;49.798;10.968;2023-12-07T07:25:18;98642.59;;;-0.02;78.86
49973;BME280;71845;49.798;10.968;2023-12-07T07:27:45;98640.72;;;0.10;78.89
49973;BME280;71845;49.798;10.968;2023-12-07T07:30:12;98637.09;;;0.17;78.32
49973;BME280;71845;49.798;10.968;2023-12-07T07:32:39;98642.50;;;0.06;78.68
49973;BME280;71845;49.798;10.968;2023-12-07T07:35:05;98642.53;;;0.01;79.22
49973;BME280;71845;49.798;10.968;2023-12-07T07:37:32;98643.25;;;0.13;78.29
49973;BME280;71845;49.798;10.968;2023-12-07T07:39:58;98654.41;;;0.21;78.87
49973;BME280;71845;49.798;10.968;2023-12-07T07:42:27;98648.31;;;0.24;78.92
49973;BME280;71845;49.798;10.968;2023-12-07T07:44:54;98647.41;;;0.26;78.28
49973;BME280;71845;49.798;10.968;2023-12-07T07:47:20;98637.88;;;0.25;78.14
49973;BME280;71845;49.798;10.968;2023-12-07T07:49:47;98651.63;;;0.34;78.66
49973;BME280;71845;49.798;10.968;2023-12-07T07:52:14;98652.50;;;0.34;78.64
49973;BME280;71845;49.798;10.968;2023-12-07T07:54:42;98651.63;;;0.34;78.10
49973;BME280;71845;49.798;10.968;2023-12-07T07:57:10;98643.81;;;0.35;78.25
49973;BME280;71845;49.798;10.968;2023-12-07T07:59:42;98658.56;;;0.35;78.22
49973;BME280;71845;49.798;10.968;2023-12-07T08:02:12;98655.13;;;0.33;78.48
49973;BME280;71845;49.798;10.968;2023-12-07T08:04:39;98659.41;;;0.37;78.28
49973;BME280;71845;49.798;10.968;2023-12-07T08:07:06;98652.22;;;0.53;77.79
49973;BME280;71845;49.798;10.968;2023-12-07T08:09:34;98645.34;;;0.49;77.73
49973;BME280;71845;49.798;10.968;2023-12-07T08:12:01;98644.50;;;0.47;78.30
49973;BME280;71845;49.798;10.968;2023-12-07T08:14:27;98656.53;;;0.55;77.44
49973;BME280;71845;49.798;10.968;2023-12-07T08:16:55;98651.34;;;0.52;78.15
49973;BME280;71845;49.798;10.968;2023-12-07T08:19:24;98657.56;;;0.47;77.48
49973;BME280;71845;49.798;10.968;2023-12-07T08:21:51;98652.22;;;0.53;77.83
49973;BME280;71845;49.798;10.968;2023-12-07T08:24:19;98654.78;;;0.54;77.33
49973;BME280;71845;49.798;10.968;2023-12-07T08:26:46;98667.81;;;0.54;76.70
49973;BME280;71845;49.798;10.968;2023-12-07T08:29:13;98659.97;;;0.57;76.60
49973;BME280;71845;49.798;10.968;2023-12-07T08:31:40;98666.03;;;0.58;77.12
49973;BME280;71845;49.798;10.968;2023-12-07T08:34:11;98674.78;;;0.55;77.24
49973;BME280;71845;49.798;10.968;2023-12-07T08:36:39;98674.88;;;0.51;77.83
49973;BME280;71845;49.798;10.968;2023-12-07T08:39:15;98672.25;;;0.51;77.32
49973;BME280;71845;49.798;10.968;2023-12-07T08:41:41;98659.16;;;0.54;77.21
49973;BME280;71845;49.798;10.968;2023-12-07T08:44:09;98667.00;;;0.52;77.24
49973;BME280;71845;49.798;10.968;2023-12-07T08:46:36;98669.72;;;0.46;78.30
49973;BME280;71845;49.798;10.968;2023-12-07T08:49:03;98670.31;;;0.64;77.20
49973;BME280;71845;49.798;10.968;2023-12-07T08:51:31;98670.25;;;0.67;77.51
49973;BME280;71845;49.798;10.968;2023-12-07T08:53:58;98677.91;;;0.78;77.45
49973;BME280;71845;49.798;10.968;2023-12-07T08:56:24;98672.66;;;0.79;77.36
49973;BME280;71845;49.798;10.968;2023-12-07T08:58:52;98674.53;;;4.13;83.86
49973;BME280;71845;49.798;10.968;2023-12-07T09:01:18;98670.84;;;2.57;73.04
49973;BME280;71845;49.798;10.968;2023-12-07T09:03:45;98676.16;;;2.15;74.49
49973;BME280;71845;49.798;10.968;2023-12-07T09:06:12;98682.94;;;1.83;75.35
49973;BME280;71845;49.798;10.968;2023-12-07T09:08:39;98683.31;;;1.64;75.92
49973;BME280;71845;49.798;10.968;2023-12-07T09:11:06;98673.81;;;1.60;75.71
49973;BME280;71845;49.798;10.968;2023-12-07T09:13:35;98692.94;;;1.61;75.61
49973;BME280;71845;49.798;10.968;2023-12-07T09:16:02;98685.84;;;4.15;77.19
49973;BME280;71845;49.798;10.968;2023-12-07T09:18:30;98679.72;;;2.12;74.30
49973;BME280;71845;49.798;10.968;2023-12-07T09:20:56;98675.41;;;1.67;75.99
49973;BME280;71845;49.798;10.968;2023-12-07T09:23:24;98673.78;;;2.80;76.04
49973;BME280;71845;49.798;10.968;2023-12-07T09:25:52;98672.38;;;1.88;75.46
49973;BME280;71845;49.798;10.968;2023-12-07T09:28:19;98681.28;;;1.79;75.83
49973;BME280;71845;49.798;10.968;2023-12-07T09:30:46;98688.19;;;1.81;75.47
49973;BME280;71845;49.798;10.968;2023-12-07T09:33:14;98678.28;;;1.55;75.96
49973;BME280;71845;49.798;10.968;2023-12-07T09:35:42;98681.72;;;1.57;75.93
49973;BME280;71845;49.798;10.968;2023-12-07T09:38:10;98682.59;;;1.56;75.53
49973;BME280;71845;49.798;10.968;2023-12-07T09:40:37;98682.72;;;1.50;75.86
49973;BME280;71845;49.798;10.968;2023-12-07T09:43:05;98661.31;;;1.31;76.60
49973;BME280;71845;49.798;10.968;2023-12-07T09:45:32;98669.19;;;1.27;76.56
49973;BME280;71845;49.798;10.968;2023-12-07T09:48:01;98670.06;;;1.28;76.78
49973;BME280;71845;49.798;10.968;2023-12-07T09:50:28;98676.19;;;1.27;76.54
49973;BME280;71845;49.798;10.968;2023-12-07T09:52:56;98666.56;;;1.29;77.54
49973;BME280;71845;49.798;10.968;2023-12-07T09:55:24;98658.59;;;1.35;77.22
49973;BME280;71845;49.798;10.968;2023-12-07T09:57:53;98640.44;;;1.31;76.33
49973;BME280;71845;49.798;10.968;2023-12-07T10:00:26;98648.88;;;1.43;76.84
49973;BME280;71845;49.798;10.968;2023-12-07T10:02:54;98657.47;;;1.49;76.96
49973;BME280;71845;49.798;10.968;2023-12-07T10:05:23;98639.19;;;1.49;76.57
49973;BME280;71845;49.798;10.968;2023-12-07T10:07:50;98655.44;;;1.63;76.72
49973;BME280;71845;49.798;10.968;2023-12-07T10:10:18;98655.31;;;1.69;76.90
49973;BME280;71845;49.798;10.968;2023-12-07T10:12:46;98658.00;;;1.66;76.45
49973;BME280;71845;49.798;10.968;2023-12-07T10:15:14;98646.63;;;1.69;76.80
49973;BME280;71845;49.798;10.968;2023-12-07T10:17:47;98637.88;;;1.71;76.25
49973;BME280;71845;49.798;10.968;2023-12-07T10:20:16;98639.38;;;1.83;76.21
49973;BME280;71845;49.798;10.968;2023-12-07T10:22:49;98634.91;;;1.87;75.87
49973;BME280;71845;49.798;10.968;2023-12-07T10:25:22;98650.16;;;2.09;75.58
49973;BME280;71845;49.798;10.968;2023-12-07T10:27:49;98640.66;;;2.05;75.66
49973;BME280;71845;49.798;10.968;2023-12-07T10:30:18;98652.66;;;2.13;75.60
49973;BME280;71845;49.798;10.968;2023-12-07T10:32:52;98649.16;;;2.14;76.09
49973;BME280;71845;49.798;10.968;2023-12-07T10:35:21;98638.53;;;2.21;76.13
49973;BME280;71845;49.798;10.968;2023-12-07T10:37:49;98642.63;;;2.33;75.64
49973;BME280;71845;49.798;10.968;2023-12-07T10:40:17;98638.19;;;2.36;75.95
49973;BME280;71845;49.798;10.968;2023-12-07T10:42:48;98635.66;;;2.32;75.25
49973;BME280;71845;49.798;10.968;2023-12-07T10:45:15;98633.94;;;2.31;75.14
49973;BME280;71845;49.798;10.968;2023-12-07T10:47:43;98629.44;;;2.37;75.22
49973;BME280;71845;49.798;10.968;2023-12-07T10:50:13;98630.66;;;2.22;75.33
49973;BME280;71845;49.798;10.968;2023-12-07T10:52:45;98621.03;;;2.24;75.09
49973;BME280;71845;49.798;10.968;2023-12-07T10:55:17;98638.44;;;2.25;76.29
49973;BME280;71845;49.798;10.968;2023-12-07T10:57:52;98635.09;;;2.19;76.03
49973;BME280;71845;49.798;10.968;2023-12-07T11:00:19;98630.16;;;2.06;76.15
49973;BME280;71845;49.798;10.968;2023-12-07T11:02:50;98638.69;;;2.14;76.36
49973;BME280;71845;49.798;10.968;2023-12-07T11:05:21;98633.63;;;2.07;76.30
49973;BME280;71845;49.798;10.968;2023-12-07T11:07:53;98634.59;;;4.32;71.08
49973;BME280;71845;49.798;10.968;2023-12-07T11:10:29;98626.53;;;3.18;72.99
49973;BME280;71845;49.798;10.968;2023-12-07T11:13:08;98612.91;;;2.71;74.12
49973;BME280;71845;49.798;10.968;2023-12-07T11:15:37;98622.44;;;2.74;73.14
49973;BME280;71845;49.798;10.968;2023-12-07T11:18:05;98616.69;;;2.60;73.47
49973;BME280;71845;49.798;10.968;2023-12-07T11:20:41;98610.47;;;2.65;74.19
49973;BME280;71845;49.798;10.968;2023-12-07T11:23:09;98608.97;;;2.53;73.80
49973;BME280;71845;49.798;10.968;2023-12-07T11:25:37;98604.47;;;2.60;74.00
49973;BME280;71845;49.798;10.968;2023-12-07T11:28:06;98589.94;;;2.48;74.24
49973;BME280;71845;49.798;10.968;2023-12-07T11:30:35;98598.59;;;2.50;74.27
49973;BME280;71845;49.798;10.968;2023-12-07T11:33:05;98592.41;;;2.54;74.35
49973;BME280;71845;49.798;10.968;2023-12-07T11:35:33;98596.59;;;2.60;74.44
49973;BME280;71845;49.798;10.968;2023-12-07T11:38:07;98590.63;;;2.56;73.87
49973;BME280;71845;49.798;10.968;2023-12-07T11:40:37;98581.28;;;2.45;73.28
49973;BME280;71845;49.798;10.968;2023-12-07T11:43:06;98594.13;;;2.55;73.16
49973;BME280;71845;49.798;10.968;2023-12-07T11:45:37;98585.78;;;2.39;73.91
49973;BME280;71845;49.798;10.968;2023-12-07T11:48:10;98577.84;;;2.44;74.46
49973;BME280;71845;49.798;10.968;2023-12-07T11:50:55;98572.41;;;2.52;74.15
49973;BME280;71845;49.798;10.968;2023-12-07T11:53:24;98568.34;;;2.40;74.66
49973;BME280;71845;49.798;10.968;2023-12-07T11:55:52;98565.53;;;3.14;72.67
49973;BME280;71845;49.798;10.968;2023-12-07T11:58:19;98566.59;;;2.75;73.18
49973;BME280;71845;49.798;10.968;2023-12-07T12:00:47;98557.41;;;2.92;73.26
49973;BME280;71845;49.798;10.968;2023-12-07T12:03:15;98559.22;;;2.90;72.74
49973;BME280;71845;49.798;10.968;2023-12-07T12:05:45;98544.41;;;2.89;71.91
49973;BME280;71845;49.798;10.968;2023-12-07T12:08:12;98547.16;;;2.84;72.81
49973;BME280;71845;49.798;10.968;2023-12-07T12:10:41;98535.97;;;2.77;72.34
49973;BME280;71845;49.798;10.968;2023-12-07T12:13:09;98554.69;;;2.96;71.85
49973;BME280;71845;49.798;10.968;2023-12-07T12:15:39;98548.66;;;2.93;71.21
49973;BME280;71845;49.798;10.968;2023-12-07T12:18:07;98550.34;;;2.95;71.19
49973;BME280;71845;49.798;10.968;2023-12-07T12:20:34;98546.66;;;3.03;71.45
49973;BME280;71845;49.798;10.968;2023-12-07T12:23:03;98548.91;;;2.83;71.42
49973;BME280;71845;49.798;10.968;2023-12-07T12:25:30;98534.16;;;2.81;71.54
49973;BME280;71845;49.798;10.968;2023-12-07T12:28:03;98524.69;;;2.75;71.43
49973;BME280;71845;49.798;10.968;2023-12-07T12:30:32;98547.47;;;2.71;71.88
49973;BME280;71845;49.798;10.968;2023-12-07T12:33:02;98532.88;;;2.63;71.02
49973;BME280;71845;49.798;10.968;2023-12-07T12:35:30;98537.53;;;2.84;70.33
49973;BME280;71845;49.798;10.968;2023-12-07T12:37:57;98525.19;;;2.90;71.24
49973;BME280;71845;49.798;10.968;2023-12-07T12:40:27;98534.84;;;2.88;71.62
49973;BME280;71845;49.798;10.968;2023-12-07T12:42:54;98529.22;;;3.02;70.91
49973;BME280;71845;49.798;10.968;2023-12-07T12:45:24;98525.50;;;3.09;69.82
49973;BME280;71845;49.798;10.968;2023-12-07T12:47:51;98528.72;;;2.87;70.04
49973;BME280;71845;49.798;10.968;2023-12-07T12:50:34;98535.88;;;2.82;70.31
49973;BME280;71845;49.798;10.968;2023-12-07T12:53:03;98531.00;;;3.31;76.17
49973;BME280;71845;49.798;10.968;2023-12-07T12:55:32;98541.38;;;3.04;70.39
49973;BME280;71845;49.798;10.968;2023-12-07T12:57:59;98526.16;;;2.85;70.79
49973;BME280;71845;49.798;10.968;2023-12-07T13:00:28;98531.94;;;2.98;70.58
49973;BME280;71845;49.798;10.968;2023-12-07T13:02:55;98533.09;;;2.86;70.94
49973;BME280;71845;49.798;10.968;2023-12-07T13:05:24;98523.34;;;2.60;71.64